createdAt,value
2022-11-24T00:00:52.222Z,100055.94
2022-11-24T00:03:18.980Z,100058.56
2022-11-24T00:05:45.730Z,100049.31
2022-11-24T00:08:12.294Z,100064.56
2022-11-24T00:10:38.659Z,100066.22
2022-11-24T00:13:05.013Z,100077.78
2022-11-24T00:15:31.355Z,100080.31
2022-11-24T00:17:57.789Z,100082.50
2022-11-24T00:20:24.140Z,100092.00
2022-11-24T00:22:50.535Z,100089.31
2022-11-24T00:25:16.979Z,100093.88
2022-11-24T00:27:43.342Z,100100.13
2022-11-24T00:30:10.047Z,100105.94
2022-11-24T00:32:36.420Z,100102.41
2022-11-24T00:35:02.828Z,100097.69
2022-11-24T00:37:29.232Z,100098.09
2022-11-24T00:39:55.568Z,100100.34
2022-11-24T00:42:21.936Z,100111.66
2022-11-24T00:44:48.329Z,100117.78
2022-11-24T00:47:14.831Z,100118.81
2022-11-24T00:49:41.238Z,100115.09
2022-11-24T00:52:07.594Z,100114.13
2022-11-24T00:54:34.314Z,100123.22
2022-11-24T00:57:01.047Z,100111.06
2022-11-24T00:59:27.448Z,100117.25
2022-11-24T01:01:53.855Z,100110.22
2022-11-24T01:04:20.345Z,100122.22
2022-11-24T01:06:46.715Z,100127.31
2022-11-24T01:09:13.108Z,100135.38
2022-11-24T01:11:57.853Z,100123.81
2022-11-24T01:14:25.374Z,100120.47
2022-11-24T01:16:52.615Z,100126.84
2022-11-24T01:19:19.795Z,100122.53
2022-11-24T01:21:47.123Z,100123.94
2022-11-24T01:24:14.022Z,100130.91
2022-11-24T01:26:40.411Z,100139.75
2022-11-24T01:29:06.749Z,100127.97
2022-11-24T01:31:33.100Z,100134.16
2022-11-24T01:33:59.505Z,100136.72
2022-11-24T01:36:25.874Z,100139.22
2022-11-24T01:38:52.256Z,100151.19
2022-11-24T01:41:21.815Z,100146.66
2022-11-24T01:43:49.516Z,100145.84
2022-11-24T01:46:24.144Z,100152.63
2022-11-24T01:49:08.657Z,100150.69
2022-11-24T01:51:40.005Z,100164.44
2022-11-24T01:54:15.943Z,100152.03
2022-11-24T01:56:47.568Z,100155.00
2022-11-24T01:59:17.130Z,100168.19
2022-11-24T02:01:43.905Z,100172.22
2022-11-24T02:04:14.953Z,100180.38
2022-11-24T02:06:43.673Z,100173.63
2022-11-24T02:09:13.625Z,100186.06
2022-11-24T02:11:41.447Z,100194.09
2022-11-24T02:14:11.731Z,100190.81
2022-11-24T02:16:40.862Z,100181.03
2022-11-24T02:19:18.060Z,100187.09
2022-11-24T02:21:44.400Z,100187.47
2022-11-24T02:24:40.439Z,100193.66
2022-11-24T02:27:07.237Z,100202.56
2022-11-24T02:29:33.793Z,100199.91
2022-11-24T02:32:04.671Z,100207.38
2022-11-24T02:34:31.295Z,100206.75
2022-11-24T02:36:57.834Z,100215.22
2022-11-24T02:39:24.268Z,100217.59
2022-11-24T02:41:57.969Z,100219.78
2022-11-24T02:44:30.415Z,100221.59
2022-11-24T02:47:05.968Z,100214.41
2022-11-24T02:49:32.368Z,100223.28
2022-11-24T02:51:59.106Z,100222.69
2022-11-24T02:54:25.508Z,100230.06
2022-11-24T02:56:52.364Z,100227.84
2022-11-24T02:59:19.222Z,100236.91
2022-11-24T03:01:45.762Z,100228.66
2022-11-24T03:04:12.715Z,100230.53
2022-11-24T03:06:39.239Z,100235.06
2022-11-24T03:09:05.886Z,100229.50
2022-11-24T03:11:32.673Z,100231.50
2022-11-24T03:13:59.024Z,100229.63
2022-11-24T03:16:25.483Z,100244.88
2022-11-24T03:18:53.034Z,100236.59
2022-11-24T03:21:19.575Z,100236.69
2022-11-24T03:23:45.965Z,100233.78
2022-11-24T03:26:15.675Z,100231.19
2022-11-24T03:28:42.155Z,100225.22
2022-11-24T03:31:09.289Z,100239.91
2022-11-24T03:33:36.310Z,100235.56
2022-11-24T03:36:04.254Z,100240.94
2022-11-24T03:38:30.635Z,100249.81
2022-11-24T03:40:57.020Z,100239.69
2022-11-24T03:43:23.371Z,100245.06
2022-11-24T03:45:50.137Z,100248.78
2022-11-24T03:48:17.681Z,100264.22
2022-11-24T03:50:52.049Z,100262.13
2022-11-24T03:53:18.411Z,100263.59
2022-11-24T03:55:44.786Z,100270.56
2022-11-24T03:58:11.233Z,100287.28
2022-11-24T04:00:37.622Z,100296.94
2022-11-24T04:03:04.048Z,100300.59
2022-11-24T04:05:30.439Z,100303.94
2022-11-24T04:07:57.560Z,100305.53
2022-11-24T04:10:24.889Z,100305.13
2022-11-24T04:12:51.243Z,100309.91
2022-11-24T04:15:19.302Z,100313.38
2022-11-24T04:17:47.084Z,100309.69
2022-11-24T04:20:14.892Z,100313.13
2022-11-24T04:22:42.050Z,100307.31
2022-11-24T04:25:10.088Z,100314.13
2022-11-24T04:27:37.194Z,100318.88
2022-11-24T04:30:05.685Z,100320.06
2022-11-24T04:32:32.136Z,100319.50
2022-11-24T04:34:58.510Z,100322.81
2022-11-24T04:37:24.893Z,100333.19
2022-11-24T04:39:51.274Z,100331.50
2022-11-24T04:42:17.656Z,100330.66
2022-11-24T04:44:44.022Z,100332.34
2022-11-24T04:47:15.885Z,100328.63
2022-11-24T04:49:42.335Z,100329.84
2022-11-24T04:52:08.698Z,100332.16
2022-11-24T04:54:35.271Z,100341.47
2022-11-24T04:57:01.891Z,100345.44
2022-11-24T04:59:28.803Z,100350.59
2022-11-24T05:01:55.327Z,100364.19
2022-11-24T05:04:22.357Z,100370.63
2022-11-24T05:06:48.806Z,100373.59
2022-11-24T05:09:17.070Z,100384.88
2022-11-24T05:11:43.761Z,100376.19
2022-11-24T05:14:10.111Z,100381.75
2022-11-24T05:16:37.710Z,100381.09
2022-11-24T05:19:04.293Z,100381.03
2022-11-24T05:21:30.660Z,100388.44
2022-11-24T05:23:57.139Z,100396.09
2022-11-24T05:26:23.573Z,100403.31
2022-11-24T05:28:50.002Z,100408.50
2022-11-24T05:31:16.369Z,100408.28
2022-11-24T05:33:43.217Z,100414.06
2022-11-24T05:36:29.911Z,100415.63
2022-11-24T05:38:56.338Z,100427.16
2022-11-24T05:41:22.819Z,100433.34
2022-11-24T05:43:49.181Z,100432.72
2022-11-24T05:46:15.722Z,100440.97
2022-11-24T05:48:42.203Z,100443.66
2022-11-24T05:51:09.547Z,100453.19
2022-11-24T05:53:36.313Z,100462.41
2022-11-24T05:56:04.000Z,100469.53
2022-11-24T05:58:30.462Z,100471.84
2022-11-24T06:00:56.878Z,100469.97
2022-11-24T06:03:23.736Z,100474.63
2022-11-24T06:05:50.160Z,100474.41
2022-11-24T06:08:16.554Z,100492.63
2022-11-24T06:10:42.904Z,100494.28
2022-11-24T06:13:09.345Z,100496.50
2022-11-24T06:15:37.631Z,100495.50
2022-11-24T06:18:04.094Z,100506.38
2022-11-24T06:20:32.809Z,100516.00
2022-11-24T06:23:00.687Z,100515.66
2022-11-24T06:25:28.494Z,100516.28
2022-11-24T06:27:55.106Z,100510.44
2022-11-24T06:30:21.499Z,100514.97
2022-11-24T06:32:49.933Z,100520.34
2022-11-24T06:35:17.308Z,100522.19
2022-11-24T06:37:43.864Z,100529.22
2022-11-24T06:40:10.450Z,100527.09
2022-11-24T06:42:37.589Z,100530.53
2022-11-24T06:45:08.717Z,100534.19
2022-11-24T06:47:35.884Z,100535.47
2022-11-24T06:50:02.707Z,100548.72
2022-11-24T06:52:29.113Z,100547.69
2022-11-24T06:54:55.492Z,100545.00
2022-11-24T06:57:21.932Z,100556.56
2022-11-24T06:59:48.365Z,100562.38
2022-11-24T07:02:14.908Z,100574.84
2022-11-24T07:04:41.265Z,100581.03
2022-11-24T07:07:07.654Z,100584.94
2022-11-24T07:09:34.112Z,100595.47
2022-11-24T07:12:02.147Z,100605.72
2022-11-24T07:14:28.513Z,100605.53
2022-11-24T07:16:54.995Z,100600.00
2022-11-24T07:19:24.832Z,100612.84
2022-11-24T07:21:51.722Z,100609.06
2022-11-24T07:24:18.068Z,100625.00
2022-11-24T07:26:44.536Z,100635.53
2022-11-24T07:29:10.902Z,100627.13
2022-11-24T07:31:37.425Z,100634.34
2022-11-24T07:34:03.870Z,100641.00
2022-11-24T07:36:30.339Z,100653.94
2022-11-24T07:38:56.872Z,100648.75
2022-11-24T07:41:23.457Z,100656.81
2022-11-24T07:43:51.424Z,100657.16
2022-11-24T07:46:19.413Z,100666.84
2022-11-24T07:48:46.276Z,100663.53
2022-11-24T07:51:12.896Z,100676.59
2022-11-24T07:53:39.545Z,100686.63
2022-11-24T07:56:06.693Z,100681.75
2022-11-24T07:58:35.935Z,100693.78
2022-11-24T08:01:16.372Z,100691.94
2022-11-24T08:03:43.689Z,100701.28
2022-11-24T08:06:31.790Z,100693.59
2022-11-24T08:08:57.976Z,100701.47
2022-11-24T08:11:25.210Z,100697.94
2022-11-24T08:13:51.632Z,100698.31
2022-11-24T08:16:19.805Z,100702.94
2022-11-24T08:18:51.196Z,100712.28
2022-11-24T08:21:17.842Z,100719.69
2022-11-24T08:23:44.432Z,100717.13
2022-11-24T08:26:15.908Z,100718.94
2022-11-24T08:28:42.821Z,100730.16
2022-11-24T08:31:18.671Z,100730.63
2022-11-24T08:33:46.026Z,100739.34
2022-11-24T08:36:15.173Z,100739.69
2022-11-24T08:38:41.875Z,100740.81
2022-11-24T08:41:14.967Z,100739.25
2022-11-24T08:43:41.627Z,100749.78
2022-11-24T08:46:11.173Z,100759.16
2022-11-24T08:48:37.963Z,100749.91
2022-11-24T08:51:13.471Z,100762.59
2022-11-24T08:53:40.394Z,100763.13
2022-11-24T08:56:08.379Z,100767.38
2022-11-24T08:58:35.143Z,100770.69
2022-11-24T09:01:19.698Z,100779.22
2022-11-24T09:03:50.741Z,100777.22
2022-11-24T09:06:23.724Z,100779.44
2022-11-24T09:08:51.737Z,100787.09
2022-11-24T09:11:18.388Z,100781.16
2022-11-24T09:13:45.150Z,100789.97
2022-11-24T09:16:14.414Z,100786.47
2022-11-24T09:18:41.252Z,100795.25
2022-11-24T09:21:08.945Z,100795.88
2022-11-24T09:23:36.228Z,100792.28
2022-11-24T09:26:14.370Z,100797.56
2022-11-24T09:28:41.609Z,100810.09
2022-11-24T09:31:11.459Z,100807.03
2022-11-24T09:33:38.607Z,100802.63
2022-11-24T09:36:06.091Z,100811.97
2022-11-24T09:38:33.130Z,100821.69
2022-11-24T09:41:14.794Z,100825.47
2022-11-24T09:43:59.898Z,100825.94
2022-11-24T09:46:54.163Z,100833.63
2022-11-24T09:49:51.517Z,100835.28
2022-11-24T09:52:43.948Z,100847.06
2022-11-24T09:55:33.089Z,100849.06
2022-11-24T09:58:21.000Z,100849.28
2022-11-24T10:00:51.731Z,100852.59
2022-11-24T10:03:43.443Z,100850.84
2022-11-24T10:06:39.603Z,100856.13
2022-11-24T10:09:42.874Z,100863.53
2022-11-24T10:12:43.427Z,100864.72
2022-11-24T10:15:45.434Z,100861.31
2022-11-24T10:18:33.082Z,100867.53
2022-11-24T10:20:59.368Z,100871.78
2022-11-24T10:23:41.209Z,100875.94
2022-11-24T10:26:31.977Z,100870.97
2022-11-24T10:28:58.421Z,100873.72
2022-11-24T10:31:42.457Z,100882.44
2022-11-24T10:34:18.025Z,100884.09
2022-11-24T10:37:06.143Z,100885.31
2022-11-24T10:39:46.603Z,100888.66
2022-11-24T10:42:18.582Z,100893.28
2022-11-24T10:44:45.261Z,100897.91
2022-11-24T10:47:22.752Z,100901.88
2022-11-24T10:50:03.551Z,100898.53
2022-11-24T10:52:36.677Z,100897.59
2022-11-24T10:55:05.074Z,100898.06
2022-11-24T10:57:32.967Z,100907.63
2022-11-24T11:00:00.851Z,100899.56
2022-11-24T11:02:39.234Z,100897.25
2022-11-24T11:05:35.078Z,100906.34
2022-11-24T11:08:17.490Z,100896.88
2022-11-24T11:10:45.381Z,100907.06
2022-11-24T11:13:27.549Z,100901.56
2022-11-24T11:15:55.554Z,100911.03
2022-11-24T11:18:25.857Z,100903.53
2022-11-24T11:20:55.367Z,100908.66
2022-11-24T11:23:31.246Z,100912.53
2022-11-24T11:26:17.361Z,100907.06
2022-11-24T11:35:12.629Z,100904.00
2022-11-24T11:37:39.052Z,100902.66
2022-11-24T11:40:15.948Z,100912.09
2022-11-24T11:43:05.226Z,100896.44
2022-11-24T11:45:35.787Z,100902.72
2022-11-24T11:48:02.758Z,100906.41
2022-11-24T11:51:15.048Z,100909.22
2022-11-24T11:54:07.434Z,100908.47
2022-11-24T11:56:40.275Z,100912.31
2022-11-24T11:59:18.427Z,100911.44
2022-11-24T12:02:16.084Z,100902.56
2022-11-24T12:04:47.064Z,100908.00
2022-11-24T12:07:47.143Z,100905.94
2022-11-24T12:10:57.903Z,100919.31
2022-11-24T12:13:33.069Z,100919.41
2022-11-24T12:16:15.747Z,100911.53
2022-11-24T12:18:57.761Z,100919.66
2022-11-24T12:21:35.682Z,100918.44
2022-11-24T12:24:17.971Z,100924.88
2022-11-24T12:26:57.574Z,100924.91
2022-11-24T12:29:53.371Z,100928.06
2022-11-24T12:33:07.645Z,100937.16
2022-11-24T12:35:46.515Z,100929.75
2022-11-24T12:38:38.018Z,100937.63
2022-11-24T12:41:40.981Z,100946.19
2022-11-24T12:44:30.597Z,100953.31
2022-11-24T12:47:10.011Z,100943.13
2022-11-24T12:50:02.705Z,100942.75
2022-11-24T12:52:35.629Z,100938.19
2022-11-24T12:55:02.755Z,100934.88
2022-11-24T12:57:44.700Z,100930.13
2022-11-24T13:00:27.056Z,100935.97
2022-11-24T13:03:11.681Z,100935.97
2022-11-24T13:06:01.234Z,100923.31
2022-11-24T13:08:29.643Z,100929.53
2022-11-24T13:11:25.980Z,100938.41
2022-11-24T13:14:28.654Z,100937.75
2022-11-24T13:19:46.877Z,100935.13
2022-11-24T13:22:24.182Z,100928.50
2022-11-24T13:25:21.666Z,100934.16
2022-11-24T13:27:52.965Z,100936.59
2022-11-24T13:30:45.463Z,100944.28
2022-11-24T13:33:16.568Z,100940.88
2022-11-24T13:36:02.230Z,100945.03
2022-11-24T13:38:43.716Z,100945.63
2022-11-24T13:41:31.268Z,100935.44
2022-11-24T13:44:16.075Z,100942.31
2022-11-24T13:47:07.025Z,100938.13
2022-11-24T13:49:46.372Z,100941.38
2022-11-24T13:52:40.377Z,100940.56
2022-11-24T13:55:12.756Z,100944.00
2022-11-24T13:57:48.000Z,100947.13
2022-11-24T14:00:35.154Z,100940.47
2022-11-24T14:03:05.356Z,100939.00
2022-11-24T14:05:45.935Z,100947.91
2022-11-24T14:08:21.770Z,100939.06
2022-11-24T14:10:48.553Z,100938.91
2022-11-24T14:13:29.673Z,100927.31
2022-11-24T14:16:00.543Z,100918.88
2022-11-24T14:18:29.056Z,100926.53
2022-11-24T14:20:56.745Z,100923.50
2022-11-24T14:23:23.328Z,100923.78
2022-11-24T14:25:51.280Z,100921.91
2022-11-24T14:28:29.163Z,100934.34
2022-11-24T14:31:09.557Z,100920.88
2022-11-24T14:33:36.673Z,100921.72
2022-11-24T14:36:03.311Z,100926.28
2022-11-24T14:38:29.692Z,100920.69
2022-11-24T14:40:56.416Z,100924.78
2022-11-24T14:43:25.515Z,100919.59
2022-11-24T14:46:08.966Z,100908.38
2022-11-24T14:48:38.592Z,100912.31
2022-11-24T14:51:19.778Z,100904.41
2022-11-24T14:53:50.524Z,100906.53
2022-11-24T14:56:27.480Z,100911.44
2022-11-24T14:58:55.571Z,100907.94
2022-11-24T15:01:27.868Z,100915.38
2022-11-24T15:04:18.178Z,100915.75
2022-11-24T15:07:18.943Z,100916.19
2022-11-24T15:09:52.830Z,100920.09
2022-11-24T15:12:28.430Z,100927.81
2022-11-24T15:14:58.575Z,100926.59
2022-11-24T15:17:28.271Z,100925.97
2022-11-24T15:20:02.751Z,100934.03
2022-11-24T15:22:29.108Z,100936.06
2022-11-24T15:24:55.510Z,100934.22
2022-11-24T15:27:22.111Z,100935.53
2022-11-24T15:29:48.491Z,100937.84
2022-11-24T15:32:15.563Z,100932.44
2022-11-24T15:34:44.013Z,100927.75
2022-11-24T15:37:10.444Z,100920.03
2022-11-24T15:39:36.859Z,100924.13
2022-11-24T15:42:03.416Z,100918.09
2022-11-24T15:44:30.084Z,100909.50
2022-11-24T15:46:56.538Z,100910.22
2022-11-24T15:49:23.084Z,100912.53
2022-11-24T15:51:49.435Z,100920.97
2022-11-24T15:54:17.837Z,100913.94
2022-11-24T15:56:44.572Z,100912.47
2022-11-24T15:59:20.581Z,100915.16
2022-11-24T16:01:49.583Z,100918.78
2022-11-24T16:04:16.317Z,100913.66
2022-11-24T16:06:42.766Z,100919.88
2022-11-24T16:09:14.355Z,100925.34
2022-11-24T16:11:40.941Z,100919.31
2022-11-24T16:14:07.411Z,100923.84
2022-11-24T16:16:33.888Z,100922.66
2022-11-24T16:19:00.400Z,100924.97
2022-11-24T16:21:26.780Z,100928.22
2022-11-24T16:23:53.751Z,100921.47
2022-11-24T16:26:20.260Z,100930.81
2022-11-24T16:28:46.660Z,100930.97
2022-11-24T16:31:15.689Z,100925.59
2022-11-24T16:33:44.481Z,100939.50
2022-11-24T16:36:10.993Z,100936.91
2022-11-24T16:38:37.374Z,100937.19
2022-11-24T16:41:03.897Z,100933.28
2022-11-24T16:43:30.462Z,100937.94
2022-11-24T16:46:16.025Z,100924.31
2022-11-24T16:48:42.955Z,100937.75
2022-11-24T16:51:10.384Z,100924.16
2022-11-24T16:53:37.170Z,100923.47
2022-11-24T16:56:04.244Z,100920.81
2022-11-24T16:58:30.674Z,100926.09
2022-11-24T17:01:12.375Z,100933.47
2022-11-24T17:03:39.093Z,100927.75
2022-11-24T17:06:11.317Z,100913.28
2022-11-24T17:08:39.548Z,100917.16
2022-11-24T17:11:11.934Z,100919.22
2022-11-24T17:13:39.141Z,100913.66
2022-11-24T17:16:11.552Z,100921.53
2022-11-24T17:18:38.873Z,100915.25
2022-11-24T17:21:09.733Z,100912.34
2022-11-24T17:23:36.966Z,100912.34
2022-11-24T17:26:14.722Z,100912.75
2022-11-24T17:28:42.145Z,100920.41
2022-11-24T17:31:24.107Z,100916.06
2022-11-24T17:33:52.887Z,100910.59
2022-11-24T17:36:19.604Z,100914.97
2022-11-24T17:38:46.068Z,100910.78
2022-11-24T17:41:12.423Z,100910.59
2022-11-24T17:43:38.776Z,100899.47
2022-11-24T17:46:05.350Z,100909.88
2022-11-24T17:48:32.362Z,100906.72
2022-11-24T17:51:03.406Z,100893.84
2022-11-24T17:53:30.492Z,100909.84
2022-11-24T17:56:00.520Z,100892.53
2022-11-24T17:58:28.278Z,100900.59
2022-11-24T18:00:54.931Z,100905.22
2022-11-24T18:03:21.426Z,100898.91
2022-11-24T18:05:47.943Z,100910.34
2022-11-24T18:08:14.509Z,100900.06
2022-11-24T18:10:40.894Z,100898.66
2022-11-24T18:13:07.300Z,100904.13
2022-11-24T18:15:34.864Z,100903.31
2022-11-24T18:18:02.007Z,100906.16
2022-11-24T18:20:28.988Z,100909.94
2022-11-24T18:23:05.381Z,100904.47
2022-11-24T18:25:33.162Z,100900.50
2022-11-24T18:27:59.584Z,100898.75
2022-11-24T18:30:25.928Z,100895.75
2022-11-24T18:32:52.339Z,100896.72
2022-11-24T18:35:18.767Z,100896.88
2022-11-24T18:37:45.244Z,100899.00
2022-11-24T18:40:11.891Z,100893.00
2022-11-24T18:42:38.342Z,100888.81
2022-11-24T18:45:05.696Z,100901.91
2022-11-24T18:47:33.401Z,100888.09
2022-11-24T18:50:00.241Z,100891.41
2022-11-24T18:52:26.721Z,100891.34
2022-11-24T18:54:53.139Z,100884.84
2022-11-24T18:57:19.549Z,100888.56
2022-11-24T18:59:45.931Z,100889.38
2022-11-24T19:02:12.431Z,100887.53
2022-11-24T19:04:40.232Z,100895.41
2022-11-24T19:07:06.683Z,100886.50
2022-11-24T19:09:33.090Z,100882.25
2022-11-24T19:12:00.066Z,100882.31
2022-11-24T19:14:26.585Z,100881.50
2022-11-24T19:16:53.040Z,100876.75
2022-11-24T19:19:19.527Z,100883.91
2022-11-24T19:21:46.108Z,100879.44
2022-11-24T19:24:15.383Z,100878.69
2022-11-24T19:26:41.915Z,100873.63
2022-11-24T19:29:08.672Z,100876.13
2022-11-24T19:31:36.036Z,100872.88
2022-11-24T19:34:03.404Z,100875.38
2022-11-24T19:36:30.493Z,100875.47
2022-11-24T19:38:57.975Z,100868.44
2022-11-24T19:41:27.092Z,100877.88
2022-11-24T19:43:54.594Z,100866.00
2022-11-24T19:46:22.639Z,100868.84
2022-11-24T19:48:53.916Z,100870.03
2022-11-24T19:51:22.993Z,100877.19
2022-11-24T19:53:49.713Z,100872.56
2022-11-24T19:56:21.396Z,100866.91
2022-11-24T19:58:48.497Z,100877.47
2022-11-24T20:01:24.469Z,100876.09
2022-11-24T20:03:58.746Z,100869.22
2022-11-24T20:06:27.004Z,100863.13
2022-11-24T20:08:53.445Z,100859.78
2022-11-24T20:11:21.203Z,100857.84
2022-11-24T20:13:49.653Z,100873.47
2022-11-24T20:16:18.652Z,100863.75
2022-11-24T20:18:47.546Z,100867.28
2022-11-24T20:21:17.935Z,100859.06
2022-11-24T20:23:46.088Z,100868.09
2022-11-24T20:26:15.220Z,100865.50
2022-11-24T20:28:42.461Z,100851.38
2022-11-24T20:31:12.350Z,100862.38
2022-11-24T20:33:39.304Z,100847.03
2022-11-24T20:36:11.607Z,100852.75
2022-11-24T20:38:39.418Z,100854.97
2022-11-24T20:41:09.606Z,100848.31
2022-11-24T20:43:37.768Z,100862.94
2022-11-24T20:46:09.308Z,100861.66
2022-11-24T20:48:36.887Z,100853.22
2022-11-24T20:51:11.611Z,100858.31
2022-11-24T20:53:38.955Z,100861.44
2022-11-24T20:56:27.239Z,100862.47
2022-11-24T20:58:53.702Z,100871.19
2022-11-24T21:01:25.295Z,100856.25
2022-11-24T21:03:54.443Z,100858.13
2022-11-24T21:06:21.597Z,100856.34
2022-11-24T21:08:47.984Z,100850.91
2022-11-24T21:11:15.294Z,100852.41
2022-11-24T21:13:44.220Z,100850.34
2022-11-24T21:16:15.224Z,100857.38
2022-11-24T21:18:42.848Z,100855.34
2022-11-24T21:21:09.290Z,100846.56
2022-11-24T21:23:35.660Z,100847.22
2022-11-24T21:26:05.708Z,100849.63
2022-11-24T21:28:33.584Z,100854.72
2022-11-24T21:31:08.730Z,100858.25
2022-11-24T21:33:44.669Z,100847.50
2022-11-24T21:36:12.502Z,100845.19
2022-11-24T21:38:38.893Z,100847.50
2022-11-24T21:41:07.279Z,100839.81
2022-11-24T21:43:34.408Z,100851.28
2022-11-24T21:46:08.926Z,100851.47
2022-11-24T21:48:36.977Z,100852.31
2022-11-24T21:51:05.921Z,100845.41
2022-11-24T21:53:36.968Z,100847.63
2022-11-24T21:56:12.545Z,100844.81
2022-11-24T21:58:44.859Z,100836.22
2022-11-24T22:01:11.580Z,100842.88
2022-11-24T22:03:38.132Z,100841.22
2022-11-24T22:06:04.744Z,100840.13
2022-11-24T22:08:31.654Z,100833.53
2022-11-24T22:11:06.024Z,100845.28
2022-11-24T22:13:33.120Z,100828.16
2022-11-24T22:16:20.819Z,100832.22
2022-11-24T22:18:47.805Z,100824.72
2022-11-24T22:21:16.561Z,100819.63
2022-11-24T22:23:43.404Z,100819.28
2022-11-24T22:26:17.128Z,100830.69
2022-11-24T22:28:44.034Z,100822.88
2022-11-24T22:31:15.841Z,100827.41
2022-11-24T22:33:43.761Z,100823.91
2022-11-24T22:36:14.071Z,100824.72
2022-11-24T22:38:41.571Z,100837.44
2022-11-24T22:41:10.742Z,100830.00
2022-11-24T22:43:38.549Z,100827.59
2022-11-24T22:46:06.611Z,100828.25
2022-11-24T22:48:33.602Z,100822.78
2022-11-24T22:51:18.067Z,100830.84
2022-11-24T22:53:49.004Z,100828.81
2022-11-24T22:56:16.640Z,100828.91
2022-11-24T22:58:43.280Z,100835.00
2022-11-24T23:01:15.077Z,100825.28
2022-11-24T23:03:42.205Z,100834.06
2022-11-24T23:06:13.742Z,100837.69
2022-11-24T23:08:40.644Z,100836.47
2022-11-24T23:11:09.818Z,100830.59
2022-11-24T23:13:36.603Z,100837.78
2022-11-24T23:16:05.238Z,100829.66
2022-11-24T23:18:32.197Z,100822.88
2022-11-24T23:21:19.300Z,100832.78
2022-11-24T23:23:47.152Z,100849.00
2022-11-24T23:26:16.756Z,100837.88
2022-11-24T23:28:43.270Z,100841.78
2022-11-24T23:31:16.148Z,100843.78
2022-11-24T23:33:42.891Z,100829.06
2022-11-24T23:36:12.523Z,100831.19
2022-11-24T23:38:39.928Z,100824.84
2022-11-24T23:41:10.713Z,100825.09
2022-11-24T23:43:39.080Z,100817.88
2022-11-24T23:46:17.561Z,100817.78
2022-11-24T23:48:44.501Z,100821.56
2022-11-24T23:51:19.110Z,100821.00
2022-11-24T23:53:46.140Z,100820.09
2022-11-24T23:56:20.880Z,100819.63
2022-11-24T23:58:47.344Z,100817.94
